Time;durP1;ratioP1;P1;durP2;ratioP2;P2;SDS_P1;SDS_P2;PMS_P1;PMS_P2;Temp;Humidity;BMP_temperature;BMP_pressure;BME280_temperature;BME280_humidity;BME280_pressure;Samples;Min_cycle;Max_cycle;Signal;HPM_P1;HPM_P2
2021/11/20 00:00:44;;;;;;;;;;;;;;;10.59;80.19;101013.66;1639548;87;20181;-74
2021/11/20 00:03:12;;;;;;;;;;;;;;;10.60;80.18;101016.65;1639651;87;20170;-74
2021/11/20 00:05:40;;;;;;;;;;;;;;;10.60;80.18;100999.31;1639520;87;21163;-74
2021/11/20 00:08:06;;;;;;;;;;;;;;;10.57;80.14;101000.95;1661112;85;20155;-74
2021/11/20 00:10:33;;;;;;;;;;;;;;;10.53;80.15;100983.94;1679124;84;20155;-74
2021/11/20 00:12:59;;;;;;;;;;;;;;;10.53;80.15;101012.43;1679102;84;20152;-74
2021/11/20 00:15:28;;;;;;;;;;;;;;;10.51;80.17;101014.43;1679081;84;20179;-74
2021/11/20 00:17:54;;;;;;;;;;;;;;;10.51;80.19;101027.77;1679697;85;20976;-74
2021/11/20 00:20:21;;;;;;;;;;;;;;;10.51;80.20;101021.09;1679370;85;20180;-74
2021/11/20 00:22:47;;;;;;;;;;;;;;;10.50;80.20;101009.59;1679131;84;20159;-74
2021/11/20 00:25:23;;;;;;;;;;;;;;;10.49;80.20;101010.57;1679177;85;20220;-74
2021/11/20 00:27:53;;;;;;;;;;;;;;;10.48;80.21;101015.55;1679282;84;20176;-74
2021/11/20 00:30:22;;;;;;;;;;;;;;;10.49;80.22;101019.91;1679229;85;21334;-74
2021/11/20 00:32:50;;;;;;;;;;;;;;;10.50;80.24;101018.92;1679277;84;20160;-74
2021/11/20 00:35:18;;;;;;;;;;;;;;;10.47;80.23;101019.23;1678942;85;20171;-74
2021/11/20 00:37:44;;;;;;;;;;;;;;;10.46;80.25;101020.22;1679157;84;20485;-74
2021/11/20 00:40:13;;;;;;;;;;;;;;;10.45;80.27;101029.20;1679159;84;20254;-74
2021/11/20 00:42:39;;;;;;;;;;;;;;;10.45;80.30;101033.20;1679292;85;21136;-74
2021/11/20 00:45:06;;;;;;;;;;;;;;;10.46;80.30;101022.88;1679215;84;20233;-74
2021/11/20 00:47:31;;;;;;;;;;;;;;;10.45;80.32;101015.86;1679288;85;20176;-74
2021/11/20 00:49:57;;;;;;;;;;;;;;;10.45;80.35;101023.86;1679359;84;20813;-74
2021/11/20 00:52:24;;;;;;;;;;;;;;;10.45;80.35;101021.20;1679106;84;20183;-75
2021/11/20 00:54:49;;;;;;;;;;;;;;;10.46;80.37;101025.55;1679082;84;21305;-74
2021/11/20 00:57:15;;;;;;;;;;;;;;;10.45;80.40;101022.53;1679354;84;20213;-74
2021/11/20 00:59:41;;;;;;;;;;;;;;;10.45;80.42;101015.86;1679128;84;20273;-74
2021/11/20 01:02:07;;;;;;;;;;;;;;;10.46;80.44;101012.22;1679333;84;20479;-74
2021/11/20 01:04:33;;;;;;;;;;;;;;;10.45;80.45;101013.20;1679291;84;20238;-74
2021/11/20 01:06:59;;;;;;;;;;;;;;;10.44;80.48;101008.88;1678983;84;21138;-74
2021/11/20 01:09:28;;;;;;;;;;;;;;;10.44;80.52;101011.55;1678572;84;20190;-74
2021/11/20 01:12:00;;;;;;;;;;;;;;;10.45;80.55;101008.36;1679482;84;20188;-74
2021/11/20 01:14:26;;;;;;;;;;;;;;;10.45;80.57;101007.86;1679260;85;20499;-74
2021/11/20 01:16:52;;;;;;;;;;;;;;;10.45;80.61;101015.86;1679302;84;20179;-74
2021/11/20 01:19:18;;;;;;;;;;;;;;;10.46;80.65;101007.38;1679296;84;20941;-74
2021/11/20 01:21:44;;;;;;;;;;;;;;;10.46;80.66;101014.04;1678984;84;20198;-74
2021/11/20 01:24:10;;;;;;;;;;;;;;;10.44;80.70;101015.55;1679069;84;20813;-74
2021/11/20 01:26:36;;;;;;;;;;;;;;;10.46;80.74;101022.88;1679224;84;20178;-74
2021/11/20 01:29:02;;;;;;;;;;;;;;;10.48;80.78;101034.22;1679086;85;20530;-74
2021/11/20 01:31:29;;;;;;;;;;;;;;;10.49;80.80;101032.39;1679474;85;21564;-74
2021/11/20 01:33:55;;;;;;;;;;;;;;;10.49;80.83;101027.91;1678862;85;20172;-75
2021/11/20 01:36:24;;;;;;;;;;;;;;;10.50;80.88;101032.25;1679476;84;20241;-75
2021/11/20 01:38:50;;;;;;;;;;;;;;;10.51;80.91;101020.60;1679080;84;20462;-75
2021/11/20 01:41:16;;;;;;;;;;;;;;;10.53;80.91;101029.77;1679242;84;20166;-75
2021/11/20 01:43:43;;;;;;;;;;;;;;;10.52;80.94;101027.59;1679086;85;21108;-75
2021/11/20 01:46:14;;;;;;;;;;;;;;;10.56;80.96;101028.12;1661680;85;20464;-75
2021/11/20 01:48:46;;;;;;;;;;;;;;;10.57;81.01;101026.30;1679254;85;20163;-75
2021/11/20 01:51:18;;;;;;;;;;;;;;;10.57;81.02;101026.30;1679016;85;20175;-75
2021/11/20 01:54:04;;;;;;;;;;;;;;;10.57;81.03;101014.30;1678735;85;20188;-75
2021/11/20 01:56:42;;;;;;;;;;;;;;;10.57;81.08;101018.30;1679259;85;21090;-75
2021/11/20 01:59:15;;;;;;;;;;;;;;;10.57;81.10;101021.80;1679217;84;20171;-75
2021/11/20 02:01:53;;;;;;;;;;;;;;;10.57;81.12;101020.47;1678952;85;20179;-75
2021/11/20 02:04:34;;;;;;;;;;;;;;;10.58;81.13;101035.98;1679207;84;20180;-75
2021/11/20 02:07:20;;;;;;;;;;;;;;;10.59;81.16;101032.33;1678910;85;20585;-75
2021/11/20 02:10:23;;;;;;;;;;;;;;;10.59;81.18;101040.33;1678886;85;21237;-73
2021/11/20 02:12:54;;;;;;;;;;;;;;;10.58;81.21;101039.98;1679106;84;20452;-73
2021/11/20 02:15:30;;;;;;;;;;;;;;;10.58;81.28;101038.65;1679228;85;20188;-73
2021/11/20 02:17:56;;;;;;;;;;;;;;;10.58;81.28;101036.82;1679277;85;20512;-73
2021/11/20 02:20:29;;;;;;;;;;;;;;;10.58;81.30;101039.98;1679207;84;20171;-73
2021/11/20 02:22:54;;;;;;;;;;;;;;;10.58;81.32;101039.98;1661855;85;21092;-75
2021/11/20 02:25:21;;;;;;;;;;;;;;;10.58;81.34;101043.98;1679080;84;20506;-75
2021/11/20 02:27:49;;;;;;;;;;;;;;;10.58;81.38;101046.16;1679321;85;20199;-75
2021/11/20 02:30:26;;;;;;;;;;;;;;;10.59;81.40;101043.81;1678917;84;20197;-75
2021/11/20 02:32:58;;;;;;;;;;;;;;;10.61;81.42;101043.67;1679238;85;20155;-75
2021/11/20 02:35:27;;;;;;;;;;;;;;;10.61;81.43;101041.00;1679222;85;21147;-75
2021/11/20 02:37:53;;;;;;;;;;;;;;;10.62;81.45;101041.35;1678403;85;20330;-75
2021/11/20 02:40:19;;;;;;;;;;;;;;;10.61;81.46;101049.00;1679079;84;20289;-75
2021/11/20 02:42:45;;;;;;;;;;;;;;;10.63;81.48;101040.34;1679197;85;20385;-75
2021/11/20 02:45:19;;;;;;;;;;;;;;;10.60;81.49;101050.83;1679319;85;20262;-75
2021/11/20 02:47:45;;;;;;;;;;;;;;;10.61;81.51;101050.34;1678464;84;21101;-75
2021/11/20 02:50:11;;;;;;;;;;;;;;;10.61;81.53;101036.52;1679116;84;20314;-75
2021/11/20 02:52:37;;;;;;;;;;;;;;;10.61;81.54;101030.33;1679127;85;20155;-75
2021/11/20 02:55:05;;;;;;;;;;;;;;;10.62;81.56;101028.02;1679177;84;20234;-75
2021/11/20 02:57:34;;;;;;;;;;;;;;;10.62;81.56;101037.35;1679210;84;20441;-75
2021/11/20 02:59:59;;;;;;;;;;;;;;;10.61;81.59;101038.33;1678902;84;21162;-75
2021/11/20 03:02:26;;;;;;;;;;;;;;;10.59;81.59;101030.47;1679139;84;20782;-75
2021/11/20 03:04:51;;;;;;;;;;;;;;;10.59;81.62;101036.33;1678914;85;20149;-75
2021/11/20 03:07:17;;;;;;;;;;;;;;;10.57;81.64;101031.62;1678865;84;21422;-75
2021/11/20 03:09:43;;;;;;;;;;;;;;;10.57;81.67;101036.96;1655932;85;20793;-75
2021/11/20 03:12:11;;;;;;;;;;;;;;;10.55;81.67;101042.47;1651849;87;21234;-75
2021/11/20 03:14:37;;;;;;;;;;;;;;;10.51;81.72;101030.42;1651817;87;20157;-75
2021/11/20 03:17:04;;;;;;;;;;;;;;;10.51;81.74;101035.27;1651936;87;20748;-75
2021/11/20 03:19:32;;;;;;;;;;;;;;;10.50;81.75;101037.59;1652001;87;20170;-75
2021/11/20 03:22:02;;;;;;;;;;;;;;;10.52;81.79;101040.08;1651703;87;20203;-75
2021/11/20 03:24:28;;;;;;;;;;;;;;;10.52;81.80;101038.75;1631995;87;22931;-75
2021/11/20 03:26:53;;;;;;;;;;;;;;;10.51;81.82;101036.61;1666356;86;20184;-75
2021/11/20 03:29:20;;;;;;;;;;;;;;;10.53;81.86;101039.09;1666194;86;20330;-75
2021/11/20 03:31:45;;;;;;;;;;;;;;;10.55;81.85;101036.30;1652404;86;20183;-75
2021/11/20 03:34:11;;;;;;;;;;;;;;;10.53;81.87;101031.94;1651684;87;20264;-75
2021/11/20 03:36:37;;;;;;;;;;;;;;;10.53;81.89;101029.27;1651820;87;21275;-75
2021/11/20 03:39:05;;;;;;;;;;;;;;;10.55;81.92;101036.30;1651908;85;20489;-75
2021/11/20 03:41:31;;;;;;;;;;;;;;;10.55;81.95;101041.63;1651978;86;20202;-75
2021/11/20 03:43:56;;;;;;;;;;;;;;;10.55;81.97;101039.80;1651856;87;20228;-75
2021/11/20 03:46:22;;;;;;;;;;;;;;;10.55;81.97;101037.63;1651968;87;20295;-75
2021/11/20 03:48:49;;;;;;;;;;;;;;;10.58;82.01;101045.31;1651926;87;21749;-75
2021/11/20 03:51:15;;;;;;;;;;;;;;;10.58;82.04;101043.98;1651769;87;20158;-75
2021/11/20 03:53:41;;;;;;;;;;;;;;;10.58;82.05;101034.65;1652048;87;20186;-75
2021/11/20 03:56:07;;;;;;;;;;;;;;;10.58;82.08;101038.16;1652064;87;20504;-75
2021/11/20 03:58:33;;;;;;;;;;;;;;;10.58;82.10;101046.16;1652159;87;20188;-75
2021/11/20 04:01:03;;;;;;;;;;;;;;;10.58;82.12;101045.31;1652065;86;21173;-75
2021/11/20 04:03:28;;;;;;;;;;;;;;;10.57;82.13;101041.80;1652053;86;20674;-75
2021/11/20 04:05:55;;;;;;;;;;;;;;;10.58;82.16;101046.65;1652020;87;20222;-75
2021/11/20 04:08:20;;;;;;;;;;;;;;;10.58;82.18;101047.49;1651888;85;20344;-75
2021/11/20 04:10:48;;;;;;;;;;;;;;;10.59;82.21;101040.33;1652284;87;20165;-75
2021/11/20 04:13:14;;;;;;;;;;;;;;;10.60;82.21;101044.66;1651744;87;21760;-75
2021/11/20 04:15:40;;;;;;;;;;;;;;;10.61;82.24;101050.34;1651935;87;20178;-75
2021/11/20 04:18:06;;;;;;;;;;;;;;;10.63;82.26;101043.01;1651898;87;20204;-75
2021/11/20 04:20:32;;;;;;;;;;;;;;;10.65;82.27;101042.38;1652078;87;20217;-75
2021/11/20 04:22:58;;;;;;;;;;;;;;;10.66;82.27;101038.20;1652058;87;20162;-75
2021/11/20 04:25:26;;;;;;;;;;;;;;;10.69;82.27;101039.74;1651784;87;20910;-75
2021/11/20 04:27:52;;;;;;;;;;;;;;;10.68;82.27;101034.90;1651892;86;20186;-75
2021/11/20 04:30:18;;;;;;;;;;;;;;;10.68;82.29;101039.39;1651876;86;20216;-75
2021/11/20 04:32:44;;;;;;;;;;;;;;;10.69;82.31;101040.58;1652184;87;20182;-73
2021/11/20 04:35:10;;;;;;;;;;;;;;;10.69;82.32;101049.92;1651497;87;20180;-74
2021/11/20 04:37:36;;;;;;;;;;;;;;;10.69;82.33;101049.92;1652079;87;21304;-75
2021/11/20 04:40:02;;;;;;;;;;;;;;;10.70;82.33;101050.73;1651803;85;20212;-75
2021/11/20 04:42:27;;;;;;;;;;;;;;;10.71;82.34;101052.41;1652017;87;20396;-75
2021/11/20 04:44:53;;;;;;;;;;;;;;;10.72;82.34;101050.94;1652067;87;20216;-76
2021/11/20 04:47:19;;;;;;;;;;;;;;;10.72;82.36;101058.10;1652112;87;20304;-75
2021/11/20 04:49:45;;;;;;;;;;;;;;;10.72;82.36;101048.77;1652050;87;21118;-75
2021/11/20 04:52:11;;;;;;;;;;;;;;;10.71;82.37;101042.59;1651538;87;20208;-74
2021/11/20 04:54:37;;;;;;;;;;;;;;;10.72;82.37;101044.77;1652028;87;20185;-74
2021/11/20 04:57:03;;;;;;;;;;;;;;;10.72;82.36;101054.94;1651799;87;20687;-74
2021/11/20 04:59:29;;;;;;;;;;;;;;;10.71;82.38;101051.08;1651985;87;20170;-74
2021/11/20 05:01:55;;;;;;;;;;;;;;;10.71;82.38;101059.08;1651848;87;21099;-74
2021/11/20 05:04:20;;;;;;;;;;;;;;;10.70;82.38;101058.73;1651714;87;20208;-74
2021/11/20 05:06:46;;;;;;;;;;;;;;;10.70;82.40;101063.58;1651874;87;20284;-74
2021/11/20 05:09:12;;;;;;;;;;;;;;;10.71;82.41;101064.42;1661146;84;20205;-75
2021/11/20 05:11:38;;;;;;;;;;;;;;;10.71;82.40;101059.08;1679215;84;20242;-74
2021/11/20 05:14:04;;;;;;;;;;;;;;;10.70;82.41;101056.06;1679325;85;20973;-74
2021/11/20 05:16:30;;;;;;;;;;;;;;;10.70;82.42;101061.41;1679141;84;20798;-74
2021/11/20 05:18:55;;;;;;;;;;;;;;;10.71;82.43;101063.09;1679190;84;20209;-74
2021/11/20 05:21:22;;;;;;;;;;;;;;;10.70;82.44;101062.25;1679123;84;20170;-75
2021/11/20 05:23:48;;;;;;;;;;;;;;;10.71;82.45;101059.08;1679288;85;20187;-74
2021/11/20 05:26:14;;;;;;;;;;;;;;;10.71;82.45;101057.75;1679193;85;21137;-74
2021/11/20 05:28:43;;;;;;;;;;;;;;;10.70;82.45;101052.06;1679161;84;20229;-74
2021/11/20 05:31:09;;;;;;;;;;;;;;;10.70;82.48;101052.91;1679267;85;20191;-74
2021/11/20 05:33:42;;;;;;;;;;;;;;;10.70;82.48;101051.58;1679670;84;20154;-74
2021/11/20 05:36:08;;;;;;;;;;;;;;;10.68;82.46;101043.39;1679007;84;20204;-74
2021/11/20 05:38:33;;;;;;;;;;;;;;;10.68;82.48;101044.23;1679205;85;21160;-74
2021/11/20 05:40:59;;;;;;;;;;;;;;;10.69;82.46;101057.92;1678864;84;20647;-74
2021/11/20 05:43:25;;;;;;;;;;;;;;;10.69;82.46;101063.27;1679019;84;20809;-74
2021/11/20 05:45:54;;;;;;;;;;;;;;;10.70;82.49;101053.40;1679144;84;20186;-76
2021/11/20 05:48:21;;;;;;;;;;;;;;;10.69;82.49;101057.92;1678666;85;20251;-75
2021/11/20 05:50:48;;;;;;;;;;;;;;;10.67;82.49;101054.55;1679150;85;21964;-75
2021/11/20 05:53:15;;;;;;;;;;;;;;;10.67;82.48;101061.72;1679143;84;20156;-74
2021/11/20 05:55:41;;;;;;;;;;;;;;;10.67;82.49;101060.38;1679187;84;20589;-74
2021/11/20 05:58:07;;;;;;;;;;;;;;;10.66;82.50;101067.55;1679166;85;20706;-75
2021/11/20 06:00:34;;;;;;;;;;;;;;;10.67;82.51;101075.05;1679214;85;20289;-75
2021/11/20 06:03:00;;;;;;;;;;;;;;;10.66;82.53;101068.88;1679308;84;21170;-75
2021/11/20 06:05:26;;;;;;;;;;;;;;;10.66;82.51;101070.73;1679257;84;20740;-75
2021/11/20 06:07:52;;;;;;;;;;;;;;;10.66;82.51;101077.40;1679039;84;20163;-75
2021/11/20 06:10:18;;;;;;;;;;;;;;;10.65;82.53;101077.05;1678999;84;20419;-73
2021/11/20 06:12:43;;;;;;;;;;;;;;;10.64;82.53;101083.37;1679270;84;20226;-75
2021/11/20 06:15:09;;;;;;;;;;;;;;;10.63;82.56;101083.02;1679277;84;21118;-74
2021/11/20 06:17:35;;;;;;;;;;;;;;;10.62;82.56;101085.36;1679049;84;20262;-75
2021/11/20 06:20:01;;;;;;;;;;;;;;;10.60;82.57;101092.66;1679183;85;20271;-74
2021/11/20 06:22:28;;;;;;;;;;;;;;;10.60;82.59;101098.00;1679147;85;20485;-74
2021/11/20 06:24:53;;;;;;;;;;;;;;;10.58;82.60;101097.33;1679260;85;20151;-74
2021/11/20 06:27:19;;;;;;;;;;;;;;;10.57;82.62;101098.30;1678799;85;21173;-74
2021/11/20 06:29:45;;;;;;;;;;;;;;;10.55;82.65;101091.81;1679265;84;20826;-74
2021/11/20 06:32:11;;;;;;;;;;;;;;;10.52;82.68;101095.59;1679153;85;20152;-73
2021/11/20 06:34:37;;;;;;;;;;;;;;;10.52;82.70;101096.92;1679223;84;20382;-74
2021/11/20 06:37:03;;;;;;;;;;;;;;;10.50;82.75;101100.26;1679270;84;20154;-73
2021/11/20 06:39:29;;;;;;;;;;;;;;;10.48;82.77;101092.08;1679066;84;21905;-73
2021/11/20 06:41:57;;;;;;;;;;;;;;;10.48;82.80;101100.89;1679078;85;20155;-73
2021/11/20 06:44:23;;;;;;;;;;;;;;;10.48;82.83;101108.89;1679175;84;20483;-73
2021/11/20 06:46:49;;;;;;;;;;;;;;;10.48;82.86;101110.22;1679279;84;20558;-73
2021/11/20 06:49:15;;;;;;;;;;;;;;;10.48;82.87;101110.22;1679202;84;20262;-73
2021/11/20 06:51:41;;;;;;;;;;;;;;;10.48;82.90;101114.22;1679206;84;21078;-75
2021/11/20 06:54:07;;;;;;;;;;;;;;;10.50;82.92;101113.59;1679299;84;20179;-73
2021/11/20 06:56:43;;;;;;;;;;;;;;;10.51;82.93;101117.10;1679155;84;20444;-73
2021/11/20 06:59:19;;;;;;;;;;;;;;;10.53;82.94;101118.62;1679543;84;20476;-73
2021/11/20 07:01:43;;;;;;;;;;;;;;;10.53;82.93;101111.95;1679280;84;20458;-73
2021/11/20 07:04:12;;;;;;;;;;;;;;;10.56;82.96;101112.63;1679056;84;22094;-74
2021/11/20 07:06:41;;;;;;;;;;;;;;;10.57;82.97;101119.64;1664956;85;20161;-73
2021/11/20 07:09:07;;;;;;;;;;;;;;;10.58;82.96;101121.33;1654335;85;20219;-73
2021/11/20 07:11:33;;;;;;;;;;;;;;;10.60;82.95;101124.67;1651402;86;20178;-73
2021/11/20 07:13:59;;;;;;;;;;;;;;;10.60;82.96;101119.33;1619724;87;20616;-73
2021/11/20 07:16:26;;;;;;;;;;;;;;;10.63;82.96;101116.36;1619741;87;21112;-73
2021/11/20 07:18:51;;;;;;;;;;;;;;;10.63;82.93;101124.36;1624022;88;20163;-73
2021/11/20 07:21:18;;;;;;;;;;;;;;;10.64;82.93;101120.71;1625241;86;20327;-73
2021/11/20 07:23:44;;;;;;;;;;;;;;;10.65;82.92;101117.06;1629145;88;20163;-73
2021/11/20 07:26:09;;;;;;;;;;;;;;;10.66;82.91;101121.41;1629032;87;20183;-73
2021/11/20 07:28:35;;;;;;;;;;;;;;;10.66;82.88;101122.23;1628917;87;21134;-73
2021/11/20 07:31:03;;;;;;;;;;;;;;;10.67;82.86;101117.73;1627972;87;20456;-73
2021/11/20 07:33:29;;;;;;;;;;;;;;;10.67;82.86;101120.40;1619295;88;20193;-73
2021/11/20 07:35:57;;;;;;;;;;;;;;;10.67;82.85;101117.73;1619212;88;20195;-74
2021/11/20 07:38:25;;;;;;;;;;;;;;;10.67;82.84;101120.40;1611152;87;20179;-74
2021/11/20 07:40:51;;;;;;;;;;;;;;;10.65;82.81;101115.23;1602870;88;21207;-74
2021/11/20 07:43:17;;;;;;;;;;;;;;;10.65;82.81;101119.73;1609288;88;20198;-74
2021/11/20 07:45:43;;;;;;;;;;;;;;;10.66;82.80;101118.75;1606204;88;20282;-74
2021/11/20 07:48:12;;;;;;;;;;;;;;;10.66;82.79;101118.75;1624053;88;20184;-74
2021/11/20 07:50:38;;;;;;;;;;;;;;;10.68;82.79;101124.75;1620635;88;20525;-75
2021/11/20 07:53:04;;;;;;;;;;;;;;;10.69;82.77;101123.77;1632629;86;21552;-75
2021/11/20 07:55:30;;;;;;;;;;;;;;;10.70;82.76;101122.76;1627598;88;20341;-75
2021/11/20 07:57:56;;;;;;;;;;;;;;;10.71;82.75;101124.44;1619970;87;20290;-75
2021/11/20 08:00:22;;;;;;;;;;;;;;;10.71;82.74;101127.11;1618425;88;20203;-75
2021/11/20 08:02:48;;;;;;;;;;;;;;;10.69;82.73;101123.77;1616334;87;20173;-75
2021/11/20 08:05:14;;;;;;;;;;;;;;;10.68;82.75;101123.42;1612143;88;21217;-75
2021/11/20 08:07:47;;;;;;;;;;;;;;;10.65;82.73;101123.23;1621406;86;20303;-75
2021/11/20 08:10:18;;;;;;;;;;;;;;;10.65;82.75;101119.73;1641266;84;20210;-74
2021/11/20 08:12:42;;;;;;;;;;;;;;;10.64;82.78;101128.71;1628636;86;20170;-75
2021/11/20 08:15:10;;;;;;;;;;;;;;;10.63;82.77;101126.53;1623282;88;20203;-74
2021/11/20 08:17:36;;;;;;;;;;;;;;;10.61;82.79;101131.69;1626573;88;21185;-74
2021/11/20 08:20:03;;;;;;;;;;;;;;;10.60;82.82;101130.00;1614573;88;20215;-74
2021/11/20 08:22:29;;;;;;;;;;;;;;;10.58;82.82;101130.66;1570153;90;20223;-73
2021/11/20 08:24:54;;;;;;;;;;;;;;;10.56;82.85;101130.80;1619404;88;20402;-74
2021/11/20 08:27:20;;;;;;;;;;;;;;;10.51;82.89;101131.28;1643705;87;20253;-74
2021/11/20 08:29:46;;;;;;;;;;;;;;;10.48;82.90;101130.22;1623668;87;21861;-73
2021/11/20 08:32:12;;;;;;;;;;;;;;;10.44;82.95;101130.20;1615214;88;20304;-73
2021/11/20 08:34:38;;;;;;;;;;;;;;;10.41;83.00;101125.15;1618499;88;20285;-74
2021/11/20 08:37:05;;;;;;;;;;;;;;;10.38;83.02;101129.94;1624937;86;20195;-74
2021/11/20 08:39:30;;;;;;;;;;;;;;;10.36;83.11;101122.11;1623923;87;20200;-73
2021/11/20 08:41:56;;;;;;;;;;;;;;;10.34;83.16;101125.44;1609858;88;21182;-72
2021/11/20 08:44:23;;;;;;;;;;;;;;;10.31;83.21;101119.05;1610128;88;20264;-73
2021/11/20 08:46:49;;;;;;;;;;;;;;;10.30;83.28;101121.39;1625345;88;20461;-74
2021/11/20 08:49:15;;;;;;;;;;;;;;;10.29;83.33;101119.70;1602414;88;20229;-74
2021/11/20 08:51:41;;;;;;;;;;;;;;;10.29;83.40;101126.86;1573914;91;20209;-74
2021/11/20 08:54:07;;;;;;;;;;;;;;;10.30;83.46;101127.21;1571745;91;20994;-74
2021/11/20 08:56:34;;;;;;;;;;;;;;;10.30;83.50;101125.39;1574472;91;20239;-74
2021/11/20 08:59:00;;;;;;;;;;;;;;;10.30;83.54;101123.22;1574960;89;20228;-74
2021/11/20 09:01:29;;;;;;;;;;;;;;;10.30;83.61;101126.72;1608557;88;20616;-74
2021/11/20 09:04:02;;;;;;;;;;;;;;;10.31;83.66;101123.56;1626866;86;20194;-74
2021/11/20 09:06:51;;;;;;;;;;;;;;;10.31;83.72;101124.38;1647109;87;21266;-73
2021/11/20 09:09:20;;;;;;;;;;;;;;;10.34;83.76;101120.11;1647382;87;20469;-74
2021/11/20 09:11:49;;;;;;;;;;;;;;;10.34;83.78;101124.59;1635277;84;20197;-73
2021/11/20 09:14:27;;;;;;;;;;;;;;;10.36;83.83;101126.11;1627988;86;20186;-73
2021/11/20 09:16:52;;;;;;;;;;;;;;;10.39;83.86;101132.47;1625523;88;20522;-74
2021/11/20 09:19:18;;;;;;;;;;;;;;;10.38;83.91;101124.13;1629200;87;21774;-74
2021/11/20 09:21:45;;;;;;;;;;;;;;;10.40;83.93;101123.49;1625014;88;20266;-74
2021/11/20 09:24:12;;;;;;;;;;;;;;;10.41;83.92;101122.48;1621647;88;20163;-74
2021/11/20 09:26:39;;;;;;;;;;;;;;;10.42;83.94;101125.99;1571979;91;20161;-74
2021/11/20 09:29:06;;;;;;;;;;;;;;;10.43;83.96;101116.52;1585193;90;20160;-75
2021/11/20 09:31:33;;;;;;;;;;;;;;;10.44;83.98;101115.54;1586646;90;21070;-75
2021/11/20 09:33:59;;;;;;;;;;;;;;;10.46;83.98;101114.04;1587609;88;20150;-75
2021/11/20 09:36:25;;;;;;;;;;;;;;;10.47;84.01;101105.90;1585896;90;20288;-75
2021/11/20 09:38:51;;;;;;;;;;;;;;;10.49;83.99;101107.91;1638827;87;20756;-75
2021/11/20 09:41:19;;;;;;;;;;;;;;;10.53;84.01;101106.62;1626132;86;20195;-76
2021/11/20 09:43:47;;;;;;;;;;;;;;;10.58;84.00;101105.33;1597983;88;20728;-75
2021/11/20 09:46:16;;;;;;;;;;;;;;;10.59;84.00;101101.16;1577344;89;20211;-75
2021/11/20 09:48:49;;;;;;;;;;;;;;;10.60;83.99;101108.66;1575348;91;20190;-75
2021/11/20 09:51:21;;;;;;;;;;;;;;;10.57;83.98;101092.97;1575733;91;20218;-75
2021/11/20 09:53:46;;;;;;;;;;;;;;;10.56;83.98;101100.63;1571332;91;20208;-75
2021/11/20 09:56:21;;;;;;;;;;;;;;;10.54;83.96;101098.13;1575705;90;21255;-75
2021/11/20 09:58:46;;;;;;;;;;;;;;;10.57;83.96;101095.64;1575138;91;20186;-76
2021/11/20 10:01:34;;;;;;;;;;;;;;;10.56;83.96;101091.28;1575824;89;20197;-75
2021/11/20 10:04:05;;;;;;;;;;;;;;;10.51;83.93;101087.28;1597482;87;20170;-76
2021/11/20 10:06:34;;;;;;;;;;;;;;;10.50;83.94;101085.59;1631706;87;20481;-75
2021/11/20 10:09:13;;;;;;;;;;;;;;;10.48;83.91;101075.55;1626799;86;21844;-75
2021/11/20 10:11:54;;;;;;;;;;;;;;;10.48;83.92;101076.89;1640531;85;20186;-75
2021/11/20 10:14:33;;;;;;;;;;;;;;;10.49;83.91;101073.23;1649491;86;20207;-75
2021/11/20 10:17:03;;;;;;;;;;;;;;;10.52;83.92;101076.09;1623894;87;20162;-76
2021/11/20 10:19:32;;;;;;;;;;;;;;;10.51;83.88;101075.27;1592680;88;20518;-76
2021/11/20 10:22:16;;;;;;;;;;;;;;;10.54;83.92;101078.13;1590003;89;21190;-76
2021/11/20 10:24:54;;;;;;;;;;;;;;;10.55;83.89;101076.30;1604150;89;20166;-75
2021/11/20 10:27:27;;;;;;;;;;;;;;;10.52;83.88;101067.59;1590961;88;20233;-76
2021/11/20 10:30:24;;;;;;;;;;;;;;;10.51;83.89;101068.61;1591552;90;20237;-75
2021/11/20 10:33:10;;;;;;;;;;;;;;;10.50;83.88;101060.25;1599967;89;20231;-75
2021/11/20 10:35:40;;;;;;;;;;;;;;;10.51;83.88;101053.94;1589566;89;21144;-76
2021/11/20 10:38:24;;;;;;;;;;;;;;;10.50;83.87;101046.92;1599325;89;20169;-76
2021/11/20 10:41:08;;;;;;;;;;;;;;;10.50;83.87;101050.92;1619008;86;20228;-75
2021/11/20 10:43:38;;;;;;;;;;;;;;;10.50;83.87;101051.41;1598603;87;20164;-75
2021/11/20 10:46:29;;;;;;;;;;;;;;;10.51;83.86;101052.61;1600987;88;20497;-75
2021/11/20 10:49:04;;;;;;;;;;;;;;;10.50;83.86;101051.41;1598335;88;21048;-75
2021/11/20 10:51:46;;;;;;;;;;;;;;;10.51;83.89;101043.77;1624297;87;20183;-76
2021/11/20 10:54:31;;;;;;;;;;;;;;;10.49;83.88;101041.23;1599653;87;20204;-75
2021/11/20 10:57:00;;;;;;;;;;;;;;;10.47;83.90;101032.56;1604480;88;20163;-76
2021/11/20 10:59:57;;;;;;;;;;;;;;;10.47;83.92;101035.23;1596232;88;20176;-75
2021/11/20 11:02:48;;;;;;;;;;;;;;;10.46;83.93;101033.55;1584113;89;21394;-75
2021/11/20 11:05:35;;;;;;;;;;;;;;;10.45;83.96;101021.20;1594736;89;20179;-75
2021/11/20 11:08:29;;;;;;;;;;;;;;;10.43;83.99;101015.19;1592295;89;20488;-75
2021/11/20 11:11:04;;;;;;;;;;;;;;;10.40;84.04;101012.84;1597822;88;20651;-75
2021/11/20 11:13:49;;;;;;;;;;;;;;;10.37;84.07;101013.16;1572123;91;20186;-75
2021/11/20 11:16:22;;;;;;;;;;;;;;;10.34;84.13;101012.12;1591992;90;21942;-75
2021/11/20 11:19:00;;;;;;;;;;;;;;;10.33;84.17;101013.60;1602203;88;20165;-75
2021/11/20 11:21:54;;;;;;;;;;;;;;;10.31;84.21;100996.94;1592708;88;20192;-75
2021/11/20 11:24:33;;;;;;;;;;;;;;;10.32;84.25;101001.25;1600341;88;20473;-75
2021/11/20 11:27:06;;;;;;;;;;;;;;;10.31;84.32;100999.08;1592300;88;20196;-75
2021/11/20 11:29:53;;;;;;;;;;;;;;;10.29;84.36;100997.08;1577850;89;21322;-75
2021/11/20 11:32:19;;;;;;;;;;;;;;;10.25;84.44;100991.70;1590821;88;20170;-75
2021/11/20 11:34:51;;;;;;;;;;;;;;;10.25;84.48;100987.70;1612448;86;20293;-75
2021/11/20 11:37:48;;;;;;;;;;;;;;;10.24;84.53;100986.02;1597505;88;20190;-75
2021/11/20 11:40:37;;;;;;;;;;;;;;;10.22;84.57;100985.35;1597518;88;20668;-75
2021/11/20 11:43:19;;;;;;;;;;;;;;;10.19;84.65;100983.00;1597499;90;21067;-75
2021/11/20 11:46:08;;;;;;;;;;;;;;;10.18;84.71;100973.80;1597219;89;20487;-75
2021/11/20 11:48:44;;;;;;;;;;;;;;;10.16;84.76;100975.31;1597547;88;20165;-75
2021/11/20 11:51:19;;;;;;;;;;;;;;;10.15;84.82;100968.30;1597339;89;20393;-74
2021/11/20 11:54:14;;;;;;;;;;;;;;;10.14;84.87;100968.41;1566949;90;20457;-74
2021/11/20 11:56:46;;;;;;;;;;;;;;;10.11;84.93;100972.22;1597597;90;21103;-74
2021/11/20 11:59:38;;;;;;;;;;;;;;;10.10;85.00;100971.87;1597344;88;20172;-75
2021/11/20 12:02:14;;;;;;;;;;;;;;;10.08;85.06;100964.53;1572753;90;20152;-74
2021/11/20 12:04:43;;;;;;;;;;;;;;;10.08;85.13;100971.20;1572766;91;20487;-74
2021/11/20 12:07:15;;;;;;;;;;;;;;;10.08;85.17;100958.36;1595559;90;20169;-74
2021/11/20 12:09:49;;;;;;;;;;;;;;;10.05;85.21;100959.52;1596871;88;21150;-74
2021/11/20 12:12:28;;;;;;;;;;;;;;;10.03;85.26;100956.15;1598620;88;20159;-74
2021/11/20 12:14:53;;;;;;;;;;;;;;;10.01;85.31;100950.15;1596303;89;20151;-74
2021/11/20 12:17:31;;;;;;;;;;;;;;;9.99;85.36;100945.48;1599496;89;20241;-74
2021/11/20 12:20:23;;;;;;;;;;;;;;;9.99;85.43;100953.47;1600630;88;20168;-74
2021/11/20 12:22:56;;;;;;;;;;;;;;;9.99;85.48;100938.82;1599488;88;21824;-74
2021/11/20 12:25:50;;;;;;;;;;;;;;;9.96;85.53;100937.77;1599605;88;20257;-74
2021/11/20 12:28:36;;;;;;;;;;;;;;;9.96;85.58;100937.77;1599524;88;20216;-74
2021/11/20 12:31:31;;;;;;;;;;;;;;;9.95;85.63;100929.45;1599188;89;20452;-74
2021/11/20 12:34:01;;;;;;;;;;;;;;;9.94;85.71;100923.28;1599377;88;20165;-74
2021/11/20 12:36:50;;;;;;;;;;;;;;;9.94;85.74;100922.44;1569230;89;21151;-74
2021/11/20 12:39:29;;;;;;;;;;;;;;;9.93;85.79;100914.09;1599168;88;20222;-74
2021/11/20 12:42:15;;;;;;;;;;;;;;;9.92;85.83;100911.11;1599106;89;20187;-74
2021/11/20 12:44:56;;;;;;;;;;;;;;;9.91;85.87;100904.94;1599408;89;20161;-74
2021/11/20 12:47:38;;;;;;;;;;;;;;;9.91;85.91;100900.11;1605200;88;20184;-74
2021/11/20 12:50:24;;;;;;;;;;;;;;;9.93;85.98;100896.78;1615999;88;21822;-75
2021/11/20 12:53:03;;;;;;;;;;;;;;;9.93;86.03;100895.45;1599642;89;20203;-75